Time;durP1;ratioP1;P1;durP2;ratioP2;P2;SDS_P1;SDS_P2;PMS_P1;PMS_P2;Temp;Humidity;BMP_temperature;BMP_pressure;BME280_temperature;BME280_humidity;BME280_pressure;Samples;Min_cycle;Max_cycle;Signal;HPM_P1;HPM_P2
2022/06/11 00:01:27;;;;;;;5.35;1.80;;;;;;;16.49;58.85;101113.75;5035214;28;20040;-70
2022/06/11 00:03:57;;;;;;;4.05;2.30;;;;;;;16.43;58.95;101121.06;5040899;28;20065;-71
2022/06/11 00:06:23;;;;;;;4.68;1.77;;;;;;;16.40;59.09;101110.56;5022252;28;20068;-72
2022/06/11 00:08:49;;;;;;;3.55;1.83;;;;;;;16.38;59.14;101105.31;5036963;28;20120;-70
2022/06/11 00:11:15;;;;;;;6.13;2.10;;;;;;;16.26;59.55;101103.94;5030352;28;20127;-71
2022/06/11 00:13:42;;;;;;;3.90;1.83;;;;;;;16.16;60.17;101106.97;5038683;28;20033;-70
2022/06/11 00:16:08;;;;;;;3.58;1.90;;;;;;;16.13;60.00;101102.63;5036396;28;20087;-70
2022/06/11 00:18:37;;;;;;;4.00;1.92;;;;;;;16.12;60.10;101110.63;5044223;28;20116;-69
2022/06/11 00:21:04;;;;;;;6.07;2.40;;;;;;;16.15;60.04;101110.50;5019742;28;20026;-71
2022/06/11 00:23:29;;;;;;;3.53;2.20;;;;;;;16.15;59.94;101100.75;5019712;28;20492;-71
2022/06/11 00:25:55;;;;;;;6.28;2.25;;;;;;;16.07;60.21;101101.94;5044238;28;20037;-72
2022/06/11 00:28:20;;;;;;;3.05;2.08;;;;;;;16.09;60.27;101097.47;5035922;28;20040;-67
2022/06/11 00:30:47;;;;;;;4.35;2.05;;;;;;;16.10;60.12;101101.84;5037700;28;20037;-73
2022/06/11 00:33:12;;;;;;;4.80;2.40;;;;;;;16.10;60.03;101099.19;5042831;28;20075;-72
2022/06/11 00:35:40;;;;;;;3.65;2.17;;;;;;;16.12;60.01;101094.72;5002947;28;20472;-72
2022/06/11 00:38:07;;;;;;;4.55;1.85;;;;;;;16.16;59.77;101088.41;5047822;28;20074;-73
2022/06/11 00:40:34;;;;;;;2.92;2.10;;;;;;;16.15;59.95;101092.81;5037304;28;20092;-73
2022/06/11 00:43:01;;;;;;;3.85;2.42;;;;;;;16.04;60.28;101096.72;5041933;28;20052;-74
2022/06/11 00:45:37;;;;;;;4.88;3.05;;;;;;;15.89;60.86;101101.63;4998367;28;20033;-72
2022/06/11 00:48:14;;;;;;;3.60;2.45;;;;;;;15.88;61.03;101109.63;5038145;28;20025;-72
2022/06/11 00:51:11;;;;;;;5.35;2.50;;;;;;;15.77;61.76;101100.25;5037298;28;20405;-68
2022/06/11 00:53:45;;;;;;;4.35;2.30;;;;;;;15.75;61.24;101096.75;5033096;28;20106;-71
2022/06/11 00:56:22;;;;;;;3.70;2.50;;;;;;;15.83;61.29;101111.56;5037307;28;20108;-68
2022/06/11 00:58:49;;;;;;;4.70;2.85;;;;;;;15.88;60.85;101104.31;5041427;28;20584;-73
2022/06/11 01:01:18;;;;;;;5.07;2.47;;;;;;;15.94;60.65;101106.78;5016122;28;20034;-72
2022/06/11 01:03:46;;;;;;;4.70;2.40;;;;;;;15.90;60.82;101105.16;5018274;28;20630;-72
2022/06/11 01:06:17;;;;;;;4.43;2.38;;;;;;;15.86;60.95;101109.69;5044755;28;20116;-72
2022/06/11 01:08:54;;;;;;;5.18;2.60;;;;;;;15.85;61.00;101107.94;5037673;28;20040;-71
2022/06/11 01:11:47;;;;;;;4.70;2.53;;;;;;;15.77;61.75;101105.53;5031860;28;20029;-71
2022/06/11 01:14:36;;;;;;;4.63;2.25;;;;;;;15.69;61.95;101104.06;5027629;28;20028;-73
2022/06/11 01:17:27;;;;;;;6.45;2.58;;;;;;;15.67;62.13;101108.53;5050142;28;20132;-72
2022/06/11 01:20:18;;;;;;;3.30;2.30;;;;;;;15.65;61.99;101105.06;5026364;28;20041;-72
2022/06/11 01:22:59;;;;;;;4.60;2.65;;;;;;;15.51;61.96;101108.09;5050941;28;20032;-71
2022/06/11 01:25:36;;;;;;;4.60;2.60;;;;;;;15.41;62.78;101102.22;5032401;28;20030;-72
2022/06/11 01:28:30;;;;;;;3.47;2.50;;;;;;;15.29;63.41;101102.59;5035966;28;20029;-73
2022/06/11 01:31:04;;;;;;;4.13;2.55;;;;;;;15.33;62.47;101101.59;5019502;28;20045;-72
2022/06/11 01:33:37;;;;;;;3.28;2.20;;;;;;;15.35;62.52;101101.53;5048196;28;20537;-72
2022/06/11 01:36:28;;;;;;;5.75;2.53;;;;;;;15.43;62.37;101104.81;5039498;28;20036;-73
2022/06/11 01:39:04;;;;;;;8.40;3.28;;;;;;;15.30;63.53;101101.66;5040300;28;20177;-72
2022/06/11 01:41:46;;;;;;;4.65;2.88;;;;;;;15.25;62.96;101115.03;5023573;28;20037;-71
2022/06/11 01:44:20;;;;;;;6.68;3.53;;;;;;;15.18;63.72;101115.25;5041565;28;20029;-71
2022/06/11 01:46:48;;;;;;;8.23;5.15;;;;;;;15.27;63.16;101114.97;5031218;28;20029;-71
2022/06/11 01:49:19;;;;;;;13.05;6.72;;;;;;;15.18;63.69;101125.84;5036145;28;20037;-71
2022/06/11 01:52:17;;;;;;;12.35;7.07;;;;;;;14.99;64.76;101115.78;5035259;28;20076;-71
2022/06/11 01:55:12;;;;;;;11.05;6.13;;;;;;;15.06;64.52;101113.84;5014918;28;20060;-71
2022/06/11 01:58:09;;;;;;;12.65;6.28;;;;;;;15.13;63.99;101117.19;5033338;28;20045;-71
2022/06/11 02:00:51;;;;;;;20.52;9.57;;;;;;;15.16;63.74;101123.25;5041992;28;20036;-72
2022/06/11 02:03:19;;;;;;;15.27;9.00;;;;;;;15.24;63.37;101125.66;5035603;28;20083;-71
2022/06/11 02:06:18;;;;;;;15.00;8.70;;;;;;;15.25;63.61;101117.69;5049888;28;20112;-71
2022/06/11 02:09:04;;;;;;;16.13;8.18;;;;;;;15.33;62.97;101124.53;5040468;28;20032;-71
2022/06/11 02:11:37;;;;;;;16.52;9.02;;;;;;;15.34;63.11;101134.22;5041699;28;20036;-73
2022/06/11 02:14:13;;;;;;;16.80;9.45;;;;;;;15.41;62.70;101139.28;5038647;28;20030;-71
2022/06/11 02:17:02;;;;;;;14.25;8.48;;;;;;;15.45;62.77;101140.06;5038940;28;20025;-71
2022/06/11 02:19:33;;;;;;;15.68;8.85;;;;;;;15.40;62.61;101141.97;5038752;28;20037;-74
2022/06/11 02:22:10;;;;;;;13.30;7.72;;;;;;;15.43;62.51;101142.75;5024730;28;20128;-72
2022/06/11 02:24:41;;;;;;;14.40;8.10;;;;;;;15.48;62.40;101150.56;5036023;28;20120;-72
2022/06/11 02:27:14;;;;;;;18.92;9.45;;;;;;;15.49;62.35;101150.53;5049438;28;20029;-71
2022/06/11 02:29:40;;;;;;;;;;;;;;;15.45;62.98;101151.53;5032393;28;20440;-71
2022/06/11 02:32:10;;;;;;;14.23;7.13;;;;;;;15.36;62.58;101151.81;5036261;28;19917;-73
2022/06/11 02:34:43;;;;;;;11.48;6.90;;;;;;;15.38;62.87;101147.31;5035089;28;20033;-74
2022/06/11 02:37:10;;;;;;;;;;;;;;;15.41;63.00;101151.66;5049545;28;20053;-72
2022/06/11 02:39:39;;;;;;;9.48;5.70;;;;;;;15.42;62.46;101159.56;5042505;28;20268;-69
2022/06/11 02:42:11;;;;;;;11.43;6.47;;;;;;;15.54;62.17;101163.63;5035771;28;20037;-72
2022/06/11 02:44:37;;;;;;;9.88;5.65;;;;;;;15.48;62.26;101161.19;5034909;28;20048;-71
2022/06/11 02:47:03;;;;;;;10.07;5.55;;;;;;;15.45;62.39;101166.56;5047142;28;20041;-71
2022/06/11 02:49:32;;;;;;;10.60;6.25;;;;;;;15.42;62.58;101169.28;5035391;28;20033;-72
2022/06/11 02:52:00;;;;;;;11.07;6.15;;;;;;;15.38;62.81;101165.84;5036885;28;20055;-72
2022/06/11 02:54:26;;;;;;;11.15;5.53;;;;;;;15.49;62.30;101168.19;5035319;28;20451;-72
2022/06/11 02:56:54;;;;;;;11.63;5.00;;;;;;;15.50;62.41;101178.72;5046054;28;20124;-71
2022/06/11 02:59:23;;;;;;;10.38;4.95;;;;;;;15.50;62.45;101169.91;5034442;28;20063;-73
2022/06/11 03:01:49;;;;;;;9.05;4.60;;;;;;;15.49;62.44;101182.31;5034589;28;20083;-72
2022/06/11 03:04:15;;;;;;;9.20;4.05;;;;;;;15.59;62.05;101174.94;5036881;28;20038;-70
2022/06/11 03:06:42;;;;;;;8.18;4.70;;;;;;;15.68;61.89;101184.44;5046071;28;20055;-70
2022/06/11 03:09:18;;;;;;;6.60;4.57;;;;;;;15.67;61.95;101180.91;5036975;28;20069;-71
2022/06/11 03:11:44;;;;;;;8.18;4.65;;;;;;;15.77;61.41;101178.88;5020803;28;20481;-71
2022/06/11 03:14:10;;;;;;;6.53;3.95;;;;;;;15.80;61.76;101177.88;5033846;28;20051;-72
2022/06/11 03:16:37;;;;;;;8.80;4.20;;;;;;;15.74;61.70;101177.16;5016947;28;20095;-74
2022/06/11 03:19:04;;;;;;;8.48;4.15;;;;;;;15.86;61.43;101173.28;5048127;28;20041;-73
2022/06/11 03:21:30;;;;;;;7.20;3.55;;;;;;;15.90;61.19;101174.91;5026190;28;20037;-73
2022/06/11 03:23:56;;;;;;;8.07;3.80;;;;;;;16.08;60.95;101176.13;5035439;28;20029;-73
2022/06/11 03:26:21;;;;;;;8.77;4.40;;;;;;;16.12;60.95;101174.25;5038242;28;20469;-73
2022/06/11 03:28:47;;;;;;;6.60;4.07;;;;;;;16.02;61.18;101179.81;5018289;28;20088;-73
2022/06/11 03:31:14;;;;;;;6.47;3.58;;;;;;;16.09;60.93;101179.66;5031911;28;20057;-73
2022/06/11 03:33:40;;;;;;;9.52;3.75;;;;;;;16.13;60.97;101181.28;5032126;28;20037;-73
2022/06/11 03:36:12;;;;;;;5.38;3.42;;;;;;;16.12;61.06;101182.22;5032499;28;20041;-73
2022/06/11 03:38:39;;;;;;;5.25;3.25;;;;;;;16.20;60.89;101180.19;5014267;28;20037;-72
2022/06/11 03:41:05;;;;;;;4.90;2.70;;;;;;;16.25;60.89;101180.88;5024596;28;20041;-72
2022/06/11 03:43:32;;;;;;;7.22;2.85;;;;;;;16.38;60.42;101182.22;5030930;28;20048;-73
2022/06/11 03:45:58;;;;;;;3.92;3.00;;;;;;;16.48;60.42;101186.31;5033224;28;20041;-72
2022/06/11 03:48:24;;;;;;;5.85;3.38;;;;;;;16.48;60.43;101194.25;5032261;28;20029;-71
2022/06/11 03:50:50;;;;;;;4.05;2.80;;;;;;;16.45;60.58;101202.31;5031405;28;20477;-73
2022/06/11 03:53:17;;;;;;;5.30;2.80;;;;;;;16.53;60.42;101195.91;5032269;28;20115;-72
2022/06/11 03:55:43;;;;;;;4.75;3.00;;;;;;;16.58;60.52;101199.25;5032141;28;20038;-73
2022/06/11 03:58:11;;;;;;;6.53;3.10;;;;;;;16.65;60.15;101190.19;5014296;28;20033;-72
2022/06/11 04:03:23;;;;;;;7.07;2.85;;;;;;;16.78;59.83;101188.00;5031732;28;20044;-72
2022/06/11 04:05:50;;;;;;;5.82;2.50;;;;;;;16.94;59.41;101191.84;5014051;28;20400;-73
2022/06/11 04:08:16;;;;;;;6.10;2.95;;;;;;;17.14;59.21;101191.13;5032872;28;20046;-71
2022/06/11 04:10:43;;;;;;;4.57;2.55;;;;;;;17.25;58.87;101186.31;5034808;28;20034;-72
2022/06/11 04:13:09;;;;;;;4.43;2.42;;;;;;;17.43;58.44;101190.06;5035544;28;20543;-72
2022/06/11 04:15:36;;;;;;;5.82;2.47;;;;;;;17.67;57.96;101185.63;5034202;28;20053;-71
2022/06/11 04:18:03;;;;;;;4.38;2.38;;;;;;;17.87;57.58;101191.09;5035778;28;20040;-73
2022/06/11 04:20:28;;;;;;;3.22;1.98;;;;;;;18.02;57.30;101184.28;5036463;28;20037;-72
2022/06/11 04:22:55;;;;;;;6.70;1.98;;;;;;;18.17;57.00;101182.81;5018878;28;20025;-73
2022/06/11 04:25:21;;;;;;;5.28;2.65;;;;;;;18.33;56.59;101177.72;5016974;28;20057;-72
2022/06/11 04:27:53;;;;;;;3.33;2.15;;;;;;;18.48;56.28;101182.41;5035271;28;20093;-72
2022/06/11 04:30:20;;;;;;;3.45;2.20;;;;;;;18.61;56.26;101188.09;5036425;28;20072;-71
2022/06/11 04:32:45;;;;;;;5.80;2.65;;;;;;;18.69;55.94;101180.63;5036277;28;20045;-72
2022/06/11 04:35:10;;;;;;;5.82;2.53;;;;;;;18.74;55.86;101188.44;5035158;28;20038;-73
2022/06/11 04:37:36;;;;;;;4.50;2.17;;;;;;;18.87;55.66;101182.56;5035976;28;20025;-71
2022/06/11 04:40:03;;;;;;;4.68;2.28;;;;;;;19.00;55.53;101187.34;5034232;28;20404;-71
2022/06/11 04:42:32;;;;;;;7.88;2.40;;;;;;;19.20;55.07;101188.19;5035860;28;20469;-72
2022/06/11 04:44:57;;;;;;;8.27;2.72;;;;;;;19.32;55.01;101186.75;5034322;28;20049;-72
2022/06/11 04:47:29;;;;;;;6.43;3.05;;;;;;;19.45;54.89;101190.59;5036088;28;20064;-72
2022/06/11 04:49:58;;;;;;;5.05;2.30;;;;;;;19.49;54.65;101187.78;5035744;28;20033;-72
2022/06/11 04:52:24;;;;;;;5.45;2.08;;;;;;;19.54;54.60;101186.63;4998620;28;20095;-72
2022/06/11 04:54:50;;;;;;;5.10;2.38;;;;;;;19.53;54.86;101194.72;5038172;28;20037;-72
2022/06/11 04:57:17;;;;;;;6.63;2.80;;;;;;;19.56;55.07;101191.91;5035890;28;20116;-73
2022/06/11 04:59:42;;;;;;;4.30;2.38;;;;;;;19.48;55.25;101191.41;5018006;28;20497;-73
2022/06/11 05:02:08;;;;;;;5.60;2.55;;;;;;;19.29;55.72;101178.91;4996800;28;20052;-72
2022/06/11 05:04:34;;;;;;;8.82;2.40;;;;;;;19.01;56.51;101186.41;5026437;28;20041;-72
2022/06/11 05:06:59;;;;;;;8.50;2.63;;;;;;;18.93;56.86;101190.25;5033348;28;20120;-73
2022/06/11 05:09:28;;;;;;;4.97;2.08;;;;;;;18.99;56.75;101188.25;5035350;28;20036;-71
2022/06/11 05:11:54;;;;;;;5.00;2.17;;;;;;;19.21;56.46;101189.03;5017764;28;20041;-71
2022/06/11 05:14:20;;;;;;;5.28;2.50;;;;;;;19.45;56.08;101190.59;5015404;28;20067;-71
2022/06/11 05:16:47;;;;;;;5.28;2.40;;;;;;;19.58;56.23;101204.22;5033422;28;20029;-71
2022/06/11 05:19:15;;;;;;;5.57;2.22;;;;;;;19.62;56.27;101191.66;5033888;28;20041;-70
2022/06/11 05:21:41;;;;;;;3.55;1.98;;;;;;;19.71;56.13;101193.00;5032805;28;20086;-70
2022/06/11 05:24:08;;;;;;;5.38;2.20;;;;;;;19.67;56.00;101182.50;5034355;28;20502;-70
2022/06/11 05:26:42;;;;;;;5.35;2.40;;;;;;;19.62;56.20;101186.31;5031699;28;20040;-70
2022/06/11 05:29:09;;;;;;;6.22;2.10;;;;;;;19.78;55.81;101195.31;5032776;28;20079;-70
2022/06/11 05:31:35;;;;;;;7.10;2.08;;;;;;;19.86;55.38;101192.28;5017347;28;20030;-71
2022/06/11 05:34:00;;;;;;;5.55;2.05;;;;;;;19.85;55.46;101207.44;5033538;28;20052;-72
2022/06/11 05:36:26;;;;;;;5.47;1.88;;;;;;;19.93;54.60;101205.25;5033225;28;20033;-72
2022/06/11 05:38:51;;;;;;;7.00;2.00;;;;;;;19.96;54.66;101208.75;5013981;28;20044;-72
2022/06/11 05:41:17;;;;;;;6.20;1.65;;;;;;;19.99;54.58;101206.78;5033664;28;20037;-72
2022/06/11 05:43:44;;;;;;;5.43;1.67;;;;;;;20.13;54.11;101206.13;5048690;28;20036;-73
2022/06/11 05:46:14;;;;;;;5.07;1.98;;;;;;;20.20;53.44;101207.56;5018859;28;20033;-74
2022/06/11 05:48:52;;;;;;;4.97;1.40;;;;;;;20.39;53.21;101219.06;5034783;28;20104;-72
2022/06/11 05:51:25;;;;;;;4.22;1.50;;;;;;;20.43;53.12;101215.31;5033572;28;20049;-73
2022/06/11 05:53:54;;;;;;;4.38;1.80;;;;;;;20.70;52.59;101212.19;5032937;28;20034;-72
2022/06/11 05:56:20;;;;;;;6.38;2.08;;;;;;;20.60;52.66;101222.50;5034648;28;20052;-72
2022/06/11 05:58:51;;;;;;;6.00;1.75;;;;;;;20.72;52.26;101215.69;5042442;28;20034;-73
2022/06/11 06:01:21;;;;;;;5.00;1.40;;;;;;;20.99;51.47;101220.56;5039932;28;20480;-71
2022/06/11 06:03:46;;;;;;;6.78;1.70;;;;;;;21.11;51.39;101218.09;5032992;28;20044;-69
2022/06/11 06:06:12;;;;;;;3.42;1.52;;;;;;;21.35;50.68;101224.00;5033151;28;20120;-71
2022/06/11 06:08:37;;;;;;;4.75;1.50;;;;;;;21.40;50.70;101218.41;5013637;28;20060;-72
2022/06/11 06:11:03;;;;;;;3.95;1.50;;;;;;;21.70;50.06;101221.19;5017241;28;20068;-72
2022/06/11 06:13:47;;;;;;;8.07;2.17;;;;;;;21.76;49.22;101220.88;5041130;28;20035;-73
2022/06/11 06:16:17;;;;;;;5.40;1.60;;;;;;;22.02;49.16;101222.13;5044437;28;20120;-73
2022/06/11 06:18:43;;;;;;;3.65;1.40;;;;;;;22.25;48.56;101217.28;5032661;28;20115;-73
2022/06/11 06:21:09;;;;;;;3.85;1.30;;;;;;;22.12;47.63;101217.09;5038525;28;20053;-73
2022/06/11 06:23:35;;;;;;;4.35;1.33;;;;;;;22.05;47.30;101215.72;5047952;28;20029;-71
2022/06/11 06:26:01;;;;;;;3.65;1.30;;;;;;;21.93;47.76;101217.25;5033493;28;20068;-73
2022/06/11 06:28:26;;;;;;;3.70;1.30;;;;;;;21.98;47.70;101217.00;5046416;28;20071;-73
2022/06/11 06:30:52;;;;;;;4.40;1.63;;;;;;;22.00;47.90;101212.44;5040692;28;20067;-73
2022/06/11 06:33:17;;;;;;;4.50;1.30;;;;;;;22.22;47.68;101206.75;5018499;28;20033;-73
2022/06/11 06:35:42;;;;;;;3.70;1.25;;;;;;;22.20;47.78;101212.22;5023160;28;20041;-73
2022/06/11 06:38:08;;;;;;;2.75;0.90;;;;;;;22.33;47.20;101220.41;5023433;28;20029;-73
2022/06/11 06:40:34;;;;;;;6.35;2.00;;;;;;;22.37;46.85;101228.16;5040613;28;20057;-73
2022/06/11 06:43:01;;;;;;;4.60;1.25;;;;;;;22.31;46.90;101222.31;5034636;28;20113;-73
2022/06/11 06:45:26;;;;;;;5.10;1.30;;;;;;;22.11;47.18;101220.72;5021908;28;20061;-73
2022/06/11 06:47:51;;;;;;;4.80;1.30;;;;;;;22.19;46.51;101217.66;5044591;28;20075;-72
2022/06/11 06:50:17;;;;;;;4.13;1.20;;;;;;;22.30;46.99;101220.56;5032622;28;20057;-72
2022/06/11 06:52:42;;;;;;;3.15;1.20;;;;;;;22.42;45.92;101219.00;5039893;28;20032;-72
2022/06/11 06:55:10;;;;;;;5.15;1.27;;;;;;;22.58;45.91;101218.03;5013051;28;20087;-73
2022/06/11 06:57:36;;;;;;;7.63;1.58;;;;;;;22.62;46.23;101216.00;5047832;28;20034;-73
2022/06/11 07:00:03;;;;;;;2.33;1.08;;;;;;;22.90;45.62;101209.00;5018702;28;20044;-72
2022/06/11 07:02:28;;;;;;;3.15;1.08;;;;;;;23.00;45.62;101208.41;5036961;28;20543;-73
2022/06/11 07:04:55;;;;;;;2.60;1.10;;;;;;;23.03;45.54;101213.59;5037047;28;20045;-74
2022/06/11 07:07:23;;;;;;;3.35;1.13;;;;;;;23.22;45.23;101207.09;5024743;28;20064;-73
2022/06/11 07:09:56;;;;;;;2.90;1.17;;;;;;;23.05;43.28;101209.00;5034760;28;20103;-73
2022/06/11 07:12:22;;;;;;;6.95;1.55;;;;;;;22.99;44.53;101203.16;5025229;28;20042;-74
2022/06/11 07:14:48;;;;;;;3.25;0.90;;;;;;;22.99;44.27;101209.38;5042312;28;20036;-71
2022/06/11 07:17:15;;;;;;;3.30;0.85;;;;;;;23.19;43.36;101204.63;5044507;28;20082;-73
2022/06/11 07:20:06;;;;;;;3.53;1.65;;;;;;;23.40;42.25;101203.28;5035422;28;20037;-73
2022/06/11 07:22:45;;;;;;;4.80;1.30;;;;;;;23.45;41.99;101206.53;5013037;28;20112;-73
2022/06/11 07:25:12;;;;;;;2.55;1.00;;;;;;;23.65;42.58;101202.59;5036047;28;20033;-74
2022/06/11 07:27:42;;;;;;;3.17;0.95;;;;;;;23.80;42.44;101204.34;5017882;28;20091;-73
2022/06/11 07:30:12;;;;;;;3.40;1.17;;;;;;;23.95;41.84;101193.59;5039706;28;20037;-74
2022/06/11 07:32:39;;;;;;;2.63;1.17;;;;;;;24.08;41.69;101202.56;5049392;28;20032;-73
2022/06/11 07:35:07;;;;;;;5.22;1.27;;;;;;;24.13;42.02;101195.06;5016161;28;20045;-72
2022/06/11 07:37:35;;;;;;;5.57;1.40;;;;;;;24.07;42.42;101203.53;5032609;28;20112;-73
2022/06/11 07:40:01;;;;;;;3.88;1.10;;;;;;;23.96;41.64;101203.34;5031798;28;20388;-72
2022/06/11 07:42:27;;;;;;;4.32;1.20;;;;;;;23.65;42.21;101212.47;5031074;28;20113;-73
2022/06/11 07:44:52;;;;;;;5.75;1.20;;;;;;;23.78;41.74;101203.59;5033925;28;20121;-72
2022/06/11 07:47:53;;;;;;;3.40;1.20;;;;;;;23.81;41.99;101205.19;5017424;28;20109;-72
2022/06/11 07:50:05;;;;;;;2.33;0.93;;;;;;;23.74;41.97;101207.44;5049617;28;20041;-71
2022/06/11 07:52:30;;;;;;;4.32;1.10;;;;;;;23.97;41.72;101199.69;5034280;28;20104;-72
2022/06/11 07:54:55;;;;;;;3.25;0.80;;;;;;;24.07;40.93;101201.69;5017774;28;20041;-72
2022/06/11 07:57:21;;;;;;;4.05;1.30;;;;;;;24.05;40.06;101200.06;5036646;28;20040;-73
2022/06/11 07:59:46;;;;;;;3.97;2.17;;;;;;;24.06;39.90;101199.13;5030786;28;20093;-73
2022/06/11 08:02:12;;;;;;;2.65;0.77;;;;;;;23.98;39.01;101202.31;5015937;28;20041;-72
2022/06/11 08:04:37;;;;;;;2.83;1.00;;;;;;;24.12;37.88;101208.59;5018942;28;20481;-72
2022/06/11 08:07:03;;;;;;;2.67;0.82;;;;;;;24.09;38.89;101204.28;5019318;28;20049;-72
2022/06/11 08:09:29;;;;;;;2.25;0.70;;;;;;;24.36;38.56;101203.44;5030806;28;20045;-71
2022/06/11 08:11:54;;;;;;;2.95;0.82;;;;;;;24.43;38.44;101215.53;5001101;28;20108;-71
2022/06/11 08:14:21;;;;;;;2.92;0.80;;;;;;;24.56;38.14;101213.72;5013363;28;20030;-72
2022/06/11 08:16:46;;;;;;;3.35;0.88;;;;;;;24.43;37.54;101210.16;5046668;28;20033;-73
2022/06/11 08:19:11;;;;;;;3.47;0.80;;;;;;;24.47;37.78;101217.03;5050799;28;20048;-73
2022/06/11 08:21:37;;;;;;;4.35;1.00;;;;;;;24.40;38.10;101207.66;5020966;28;20136;-73
2022/06/11 08:24:03;;;;;;;3.70;1.00;;;;;;;24.54;37.94;101213.00;5018609;28;20033;-73
2022/06/11 08:26:28;;;;;;;2.17;1.05;;;;;;;24.57;38.21;101207.38;5036023;28;20044;-73
2022/06/11 08:28:53;;;;;;;4.75;0.90;;;;;;;24.71;38.27;101204.63;5015560;28;20045;-70
2022/06/11 08:31:19;;;;;;;4.25;1.13;;;;;;;24.89;37.96;101207.03;5020623;28;20038;-73
2022/06/11 08:33:45;;;;;;;2.92;0.90;;;;;;;24.97;37.85;101221.66;5018450;28;20096;-72
2022/06/11 08:36:10;;;;;;;3.67;1.05;;;;;;;24.87;38.01;101212.53;5035801;28;20431;-73
2022/06/11 08:38:35;;;;;;;4.45;1.20;;;;;;;25.02;38.03;101214.16;5035779;28;20039;-72
2022/06/11 08:41:02;;;;;;;2.05;0.90;;;;;;;24.92;38.24;101209.50;5043306;28;20045;-72
2022/06/11 08:43:34;;;;;;;2.92;1.00;;;;;;;24.88;38.32;101200.78;5016540;28;20036;-72
2022/06/11 08:46:03;;;;;;;3.10;0.80;;;;;;;25.03;38.50;101207.81;5027996;28;20033;-73
2022/06/11 08:48:44;;;;;;;5.93;1.02;;;;;;;25.10;38.04;101208.28;5035080;28;20037;-73
2022/06/11 08:51:24;;;;;;;3.25;1.05;;;;;;;25.30;37.04;101213.13;5037214;28;20387;-72
2022/06/11 08:53:52;;;;;;;3.95;0.90;;;;;;;25.38;37.79;101209.91;5015961;28;20443;-72
2022/06/11 08:56:56;;;;;;;3.20;1.13;;;;;;;25.30;36.97;101204.19;5016892;28;20029;-73
2022/06/11 08:59:47;;;;;;;;;;;;;;;25.28;37.55;101203.44;5032755;28;20112;-73
2022/06/11 09:02:21;;;;;;;4.95;0.90;;;;;;;25.38;37.54;101200.97;5035216;28;19923;-73
2022/06/11 09:05:16;;;;;;;2.70;1.30;;;;;;;25.46;37.10;101198.59;5034220;28;20389;-72
2022/06/11 09:08:09;;;;;;;4.28;1.23;;;;;;;25.46;37.57;101193.22;5034686;28;20106;-73
2022/06/11 09:11:02;;;;;;;4.38;0.98;;;;;;;25.50;37.30;101192.03;5034275;28;20048;-71
2022/06/11 09:14:10;;;;;;;4.65;1.20;;;;;;;25.70;37.03;101194.16;5034895;28;20033;-73
2022/06/11 09:16:59;;;;;;;4.10;1.00;;;;;;;25.38;37.18;101201.84;5032704;28;20032;-73
2022/06/11 09:19:50;;;;;;;2.30;1.00;;;;;;;25.44;37.27;101192.44;5033453;28;20040;-73
2022/06/11 09:22:44;;;;;;;2.85;1.10;;;;;;;25.51;37.42;101189.22;5029891;28;20024;-73
2022/06/11 09:25:43;;;;;;;3.83;1.50;;;;;;;25.31;36.95;101193.31;5035050;28;20029;-73
2022/06/11 09:28:30;;;;;;;4.25;0.90;;;;;;;25.41;37.15;101189.97;5028346;28;20037;-72
2022/06/11 09:31:13;;;;;;;3.95;1.20;;;;;;;25.48;36.51;101185.88;5007521;28;20033;-73
2022/06/11 09:33:51;;;;;;;4.15;1.05;;;;;;;25.67;36.78;101188.13;5017154;28;20048;-73
2022/06/11 09:36:45;;;;;;;4.45;1.02;;;;;;;26.02;36.18;101180.19;5015579;28;20025;-72
2022/06/11 09:39:24;;;;;;;3.75;1.17;;;;;;;25.98;37.05;101176.00;5034259;28;20438;-73
2022/06/11 09:42:01;;;;;;;4.15;1.10;;;;;;;26.19;36.48;101174.41;5033846;28;20148;-74
2022/06/11 09:44:48;;;;;;;4.57;1.00;;;;;;;26.36;35.92;101180.34;5032774;28;20069;-73
2022/06/11 09:47:47;;;;;;;5.07;1.10;;;;;;;26.10;35.32;101169.72;5029488;28;20029;-74
2022/06/11 09:50:21;;;;;;;3.00;1.15;;;;;;;26.04;35.53;101172.84;4997451;28;20049;-73
2022/06/11 09:52:55;;;;;;;2.72;0.85;;;;;;;26.13;36.31;101156.03;5026735;28;20099;-72
2022/06/11 09:55:28;;;;;;;5.20;1.08;;;;;;;26.29;36.45;101158.41;5030392;28;20484;-72
2022/06/11 09:58:18;;;;;;;3.70;1.08;;;;;;;26.35;35.91;101155.25;5032703;28;20088;-73
2022/06/11 10:00:50;;;;;;;6.88;1.20;;;;;;;26.56;35.78;101143.84;5017036;28;20045;-73
2022/06/11 10:06:15;;;;;;;2.33;1.05;;;;;;;26.66;34.64;101151.13;5036614;28;20060;-71
2022/06/11 10:08:47;;;;;;;2.30;0.90;;;;;;;26.88;35.46;101147.59;5015106;28;20381;-73
2022/06/11 10:11:29;;;;;;;3.63;0.90;;;;;;;26.85;34.63;101161.34;5033052;28;20124;-74
2022/06/11 10:14:28;;;;;;;3.72;1.00;;;;;;;26.95;35.52;101145.28;5022655;28;20029;-74
2022/06/11 10:17:19;;;;;;;3.83;1.00;;;;;;;27.07;34.45;101152.41;5027653;28;20060;-73
2022/06/11 10:20:03;;;;;;;5.10;1.02;;;;;;;27.19;34.56;101137.13;5013839;28;20370;-73
2022/06/11 10:22:35;;;;;;;3.75;1.20;;;;;;;27.18;35.10;101144.38;5032649;28;20548;-74
2022/06/11 10:25:25;;;;;;;2.03;0.80;;;;;;;27.12;34.55;101134.06;5031211;28;20061;-73
2022/06/11 10:28:09;;;;;;;2.63;0.98;;;;;;;27.31;34.43;101140.69;5041694;28;20033;-74
2022/06/11 10:30:48;;;;;;;3.00;0.90;;;;;;;27.55;34.43;101133.31;5016181;28;20084;-74
2022/06/11 10:33:20;;;;;;;3.40;1.20;;;;;;;27.79;34.57;101132.31;5031215;28;20396;-75
2022/06/11 10:35:53;;;;;;;3.35;1.23;;;;;;;28.01;34.21;101129.56;5045805;28;20116;-73
2022/06/11 10:38:44;;;;;;;3.33;1.00;;;;;;;28.00;33.95;101126.00;5032280;28;20064;-75
2022/06/11 10:41:23;;;;;;;2.58;0.80;;;;;;;28.03;34.26;101130.28;5036174;28;20037;-74
2022/06/11 10:43:58;;;;;;;3.55;1.05;;;;;;;27.87;33.36;101127.16;5053564;28;20375;-67
2022/06/11 10:46:24;;;;;;;4.88;1.08;;;;;;;27.81;34.25;101124.94;5013852;28;20021;-74
2022/06/11 10:48:50;;;;;;;3.88;1.08;;;;;;;27.73;34.75;101121.06;5023868;28;20369;-74
2022/06/11 10:51:24;;;;;;;3.97;1.30;;;;;;;27.83;33.42;101123.00;5053268;28;20445;-75
2022/06/11 10:53:52;;;;;;;2.65;0.90;;;;;;;28.06;33.61;101121.94;5012145;28;20488;-75
2022/06/11 10:56:26;;;;;;;2.17;0.90;;;;;;;27.95;34.13;101130.06;5033463;28;20049;-75
2022/06/11 10:59:33;;;;;;;2.58;0.88;;;;;;;27.70;32.60;101121.25;5017812;28;20033;-74
2022/06/11 11:02:13;;;;;;;2.30;0.90;;;;;;;27.70;33.02;101121.25;5031140;28;20040;-75
2022/06/11 11:04:56;;;;;;;2.38;0.90;;;;;;;27.73;32.51;101112.97;5036300;28;20079;-74
2022/06/11 11:07:24;;;;;;;3.45;1.17;;;;;;;27.64;33.78;101119.06;5020403;28;20030;-74
2022/06/11 11:09:55;;;;;;;2.92;1.13;;;;;;;27.61;33.86;101111.22;5046433;28;20040;-73
2022/06/11 11:12:34;;;;;;;4.25;1.02;;;;;;;27.54;32.65;101110.00;5030529;28;20045;-72
2022/06/11 11:15:22;;;;;;;2.97;0.98;;;;;;;27.93;33.79;101115.84;5033586;28;20045;-75
2022/06/11 11:18:01;;;;;;;3.58;0.82;;;;;;;28.22;32.12;101116.97;5031861;28;20067;-73
2022/06/11 11:20:41;;;;;;;3.63;1.05;;;;;;;28.25;32.16;101107.75;5015368;28;20163;-75
2022/06/11 11:23:16;;;;;;;3.30;1.05;;;;;;;28.02;32.20;101112.38;5015462;28;20488;-75
2022/06/11 11:26:04;;;;;;;3.38;1.05;;;;;;;28.12;31.81;101110.59;5019778;28;20112;-75
2022/06/11 11:29:08;;;;;;;2.15;0.88;;;;;;;28.42;31.29;101106.34;5014922;28;20072;-74
2022/06/11 11:31:50;;;;;;;1.20;0.63;;;;;;;28.54;31.54;101096.31;4992652;28;20389;-75
2022/06/11 11:34:21;;;;;;;1.53;0.70;;;;;;;28.77;32.02;101108.72;5040780;28;20037;-74
2022/06/11 11:36:47;;;;;;;4.88;1.02;;;;;;;28.85;31.92;101094.53;5053222;28;20273;-73
2022/06/11 11:39:13;;;;;;;2.72;1.00;;;;;;;29.04;32.17;101097.31;5053128;28;20068;-75
2022/06/11 11:41:46;;;;;;;3.03;1.10;;;;;;;29.32;29.81;101094.88;5036470;28;20064;-74
2022/06/11 11:44:23;;;;;;;1.45;0.73;;;;;;;29.34;29.85;101098.31;5027833;28;20293;-73
2022/06/11 11:47:00;;;;;;;1.55;1.02;;;;;;;29.56;28.99;101094.53;5035422;28;20627;-74
2022/06/11 11:49:29;;;;;;;2.15;0.90;;;;;;;29.66;30.15;101088.16;5031430;28;20049;-72
2022/06/11 11:52:18;;;;;;;3.05;0.88;;;;;;;29.68;29.26;101094.31;5031591;28;20045;-75
2022/06/11 11:55:11;;;;;;;2.35;0.63;;;;;;;29.87;29.08;101095.31;5028840;28;20036;-73